sensor_id;sensor_type;location;lat;lon;timestamp;P1;durP1;ratioP1;P2;durP2;ratioP2
57832;SDS011;43667;53.036;6.740;2023-03-19T00:02:13;86.82;;;47.20;;
57832;SDS011;43667;53.036;6.740;2023-03-19T00:04:39;81.95;;;46.42;;
57832;SDS011;43667;53.036;6.740;2023-03-19T00:07:05;81.40;;;45.25;;
57832;SDS011;43667;53.036;6.740;2023-03-19T00:09:30;73.55;;;43.65;;
57832;SDS011;43667;53.036;6.740;2023-03-19T00:11:56;59.95;;;41.35;;
57832;SDS011;43667;53.036;6.740;2023-03-19T00:14:22;77.05;;;43.45;;
57832;SDS011;43667;53.036;6.740;2023-03-19T00:16:47;120.35;;;49.45;;
57832;SDS011;43667;53.036;6.740;2023-03-19T00:19:13;113.05;;;45.47;;
57832;SDS011;43667;53.036;6.740;2023-03-19T00:21:39;299.70;;;54.55;;
57832;SDS011;43667;53.036;6.740;2023-03-19T00:24:05;208.15;;;53.38;;
57832;SDS011;43667;53.036;6.740;2023-03-19T00:26:32;113.75;;;47.53;;
57832;SDS011;43667;53.036;6.740;2023-03-19T00:28:58;80.80;;;44.17;;
57832;SDS011;43667;53.036;6.740;2023-03-19T00:31:25;77.32;;;43.90;;
57832;SDS011;43667;53.036;6.740;2023-03-19T00:33:52;68.13;;;40.80;;
57832;SDS011;43667;53.036;6.740;2023-03-19T00:36:17;83.22;;;45.08;;
57832;SDS011;43667;53.036;6.740;2023-03-19T00:38:44;106.05;;;48.33;;
57832;SDS011;43667;53.036;6.740;2023-03-19T00:41:10;56.72;;;39.55;;
57832;SDS011;43667;53.036;6.740;2023-03-19T00:43:37;63.83;;;42.80;;
57832;SDS011;43667;53.036;6.740;2023-03-19T00:46:02;62.75;;;41.58;;
57832;SDS011;43667;53.036;6.740;2023-03-19T00:48:28;90.55;;;47.17;;
57832;SDS011;43667;53.036;6.740;2023-03-19T00:50:54;86.45;;;47.38;;
57832;SDS011;43667;53.036;6.740;2023-03-19T00:53:20;65.82;;;43.00;;
57832;SDS011;43667;53.036;6.740;2023-03-19T00:55:45;74.68;;;45.45;;
57832;SDS011;43667;53.036;6.740;2023-03-19T00:58:11;65.22;;;41.83;;
57832;SDS011;43667;53.036;6.740;2023-03-19T01:00:37;56.38;;;39.85;;
57832;SDS011;43667;53.036;6.740;2023-03-19T01:03:03;57.95;;;37.80;;
57832;SDS011;43667;53.036;6.740;2023-03-19T01:05:30;72.85;;;42.90;;
57832;SDS011;43667;53.036;6.740;2023-03-19T01:07:58;62.72;;;40.03;;
57832;SDS011;43667;53.036;6.740;2023-03-19T01:10:23;37.92;;;31.00;;
57832;SDS011;43667;53.036;6.740;2023-03-19T01:12:50;63.70;;;38.55;;
57832;SDS011;43667;53.036;6.740;2023-03-19T01:15:16;56.13;;;38.53;;
57832;SDS011;43667;53.036;6.740;2023-03-19T01:17:42;52.17;;;36.33;;
57832;SDS011;43667;53.036;6.740;2023-03-19T01:20:09;44.50;;;34.38;;
57832;SDS011;43667;53.036;6.740;2023-03-19T01:22:43;70.10;;;41.00;;
57832;SDS011;43667;53.036;6.740;2023-03-19T01:25:09;55.97;;;36.35;;
57832;SDS011;43667;53.036;6.740;2023-03-19T01:27:37;67.15;;;39.00;;
57832;SDS011;43667;53.036;6.740;2023-03-19T01:30:03;54.97;;;36.55;;
57832;SDS011;43667;53.036;6.740;2023-03-19T01:32:29;55.45;;;36.97;;
57832;SDS011;43667;53.036;6.740;2023-03-19T01:34:55;56.28;;;35.10;;
57832;SDS011;43667;53.036;6.740;2023-03-19T01:37:21;45.70;;;33.67;;
57832;SDS011;43667;53.036;6.740;2023-03-19T01:39:47;49.40;;;33.95;;
57832;SDS011;43667;53.036;6.740;2023-03-19T01:42:13;44.85;;;32.30;;
57832;SDS011;43667;53.036;6.740;2023-03-19T01:44:39;60.88;;;36.42;;
57832;SDS011;43667;53.036;6.740;2023-03-19T01:49:55;36.92;;;28.42;;
57832;SDS011;43667;53.036;6.740;2023-03-19T01:52:22;42.08;;;31.13;;
57832;SDS011;43667;53.036;6.740;2023-03-19T01:54:49;32.35;;;25.95;;
57832;SDS011;43667;53.036;6.740;2023-03-19T01:57:16;42.88;;;29.58;;
57832;SDS011;43667;53.036;6.740;2023-03-19T01:59:44;34.53;;;26.60;;
57832;SDS011;43667;53.036;6.740;2023-03-19T02:05:02;28.10;;;22.95;;
57832;SDS011;43667;53.036;6.740;2023-03-19T02:07:36;38.25;;;28.33;;
57832;SDS011;43667;53.036;6.740;2023-03-19T02:10:04;37.67;;;26.83;;
57832;SDS011;43667;53.036;6.740;2023-03-19T02:12:36;41.92;;;27.52;;
57832;SDS011;43667;53.036;6.740;2023-03-19T02:15:02;31.52;;;24.60;;
57832;SDS011;43667;53.036;6.740;2023-03-19T02:17:29;29.65;;;23.88;;
57832;SDS011;43667;53.036;6.740;2023-03-19T02:22:52;32.45;;;24.88;;
57832;SDS011;43667;53.036;6.740;2023-03-19T02:25:29;44.00;;;27.48;;
57832;SDS011;43667;53.036;6.740;2023-03-19T02:28:17;56.38;;;29.08;;
57832;SDS011;43667;53.036;6.740;2023-03-19T02:30:44;53.80;;;30.20;;
57832;SDS011;43667;53.036;6.740;2023-03-19T02:33:14;41.20;;;28.00;;
57832;SDS011;43667;53.036;6.740;2023-03-19T02:35:44;51.35;;;28.30;;
57832;SDS011;43667;53.036;6.740;2023-03-19T02:38:13;49.83;;;29.58;;
57832;SDS011;43667;53.036;6.740;2023-03-19T02:40:44;51.88;;;29.88;;
57832;SDS011;43667;53.036;6.740;2023-03-19T02:43:21;52.33;;;30.10;;
57832;SDS011;43667;53.036;6.740;2023-03-19T02:45:46;60.58;;;30.73;;
57832;SDS011;43667;53.036;6.740;2023-03-19T02:48:12;43.47;;;28.20;;
57832;SDS011;43667;53.036;6.740;2023-03-19T02:50:38;55.03;;;30.13;;
57832;SDS011;43667;53.036;6.740;2023-03-19T02:53:03;49.03;;;29.23;;
57832;SDS011;43667;53.036;6.740;2023-03-19T02:55:29;27.42;;;24.10;;
57832;SDS011;43667;53.036;6.740;2023-03-19T02:57:55;44.00;;;27.70;;
57832;SDS011;43667;53.036;6.740;2023-03-19T03:00:20;45.85;;;27.02;;
57832;SDS011;43667;53.036;6.740;2023-03-19T03:02:46;37.17;;;27.02;;
57832;SDS011;43667;53.036;6.740;2023-03-19T03:05:12;31.52;;;25.58;;
57832;SDS011;43667;53.036;6.740;2023-03-19T03:07:38;55.78;;;29.88;;
57832;SDS011;43667;53.036;6.740;2023-03-19T03:10:05;41.35;;;27.48;;
57832;SDS011;43667;53.036;6.740;2023-03-19T03:12:32;70.30;;;33.40;;
57832;SDS011;43667;53.036;6.740;2023-03-19T03:14:58;47.05;;;29.10;;
57832;SDS011;43667;53.036;6.740;2023-03-19T03:17:23;81.05;;;35.50;;
57832;SDS011;43667;53.036;6.740;2023-03-19T03:19:49;39.63;;;28.65;;
57832;SDS011;43667;53.036;6.740;2023-03-19T03:22:15;71.43;;;34.22;;
57832;SDS011;43667;53.036;6.740;2023-03-19T03:24:41;43.15;;;29.73;;
57832;SDS011;43667;53.036;6.740;2023-03-19T03:27:07;41.33;;;29.92;;
57832;SDS011;43667;53.036;6.740;2023-03-19T03:29:33;62.88;;;34.15;;
57832;SDS011;43667;53.036;6.740;2023-03-19T03:31:59;63.13;;;33.70;;
57832;SDS011;43667;53.036;6.740;2023-03-19T03:34:24;84.70;;;35.25;;
57832;SDS011;43667;53.036;6.740;2023-03-19T03:36:50;58.45;;;33.13;;
57832;SDS011;43667;53.036;6.740;2023-03-19T03:39:16;60.05;;;33.20;;
57832;SDS011;43667;53.036;6.740;2023-03-19T03:41:43;72.97;;;36.35;;
57832;SDS011;43667;53.036;6.740;2023-03-19T03:44:08;43.75;;;30.77;;
57832;SDS011;43667;53.036;6.740;2023-03-19T03:46:34;67.63;;;34.03;;
57832;SDS011;43667;53.036;6.740;2023-03-19T03:49:00;59.72;;;33.15;;
57832;SDS011;43667;53.036;6.740;2023-03-19T03:51:25;55.50;;;31.77;;
57832;SDS011;43667;53.036;6.740;2023-03-19T03:53:51;59.55;;;31.48;;
57832;SDS011;43667;53.036;6.740;2023-03-19T03:56:17;109.47;;;39.15;;
57832;SDS011;43667;53.036;6.740;2023-03-19T03:58:42;55.35;;;32.38;;
57832;SDS011;43667;53.036;6.740;2023-03-19T04:01:11;65.70;;;32.45;;
57832;SDS011;43667;53.036;6.740;2023-03-19T04:03:40;53.25;;;32.08;;
57832;SDS011;43667;53.036;6.740;2023-03-19T04:06:05;61.03;;;34.42;;
57832;SDS011;43667;53.036;6.740;2023-03-19T04:08:31;59.58;;;34.25;;
57832;SDS011;43667;53.036;6.740;2023-03-19T04:10:56;31.23;;;24.33;;
57832;SDS011;43667;53.036;6.740;2023-03-19T04:13:23;54.50;;;32.47;;
57832;SDS011;43667;53.036;6.740;2023-03-19T04:15:49;35.70;;;25.95;;
57832;SDS011;43667;53.036;6.740;2023-03-19T04:18:15;32.88;;;24.77;;
57832;SDS011;43667;53.036;6.740;2023-03-19T04:20:40;35.15;;;25.67;;
57832;SDS011;43667;53.036;6.740;2023-03-19T04:23:07;32.67;;;23.20;;
57832;SDS011;43667;53.036;6.740;2023-03-19T04:25:32;33.22;;;24.30;;
57832;SDS011;43667;53.036;6.740;2023-03-19T04:27:58;40.45;;;25.67;;
57832;SDS011;43667;53.036;6.740;2023-03-19T04:30:23;29.48;;;23.80;;
57832;SDS011;43667;53.036;6.740;2023-03-19T04:32:49;35.15;;;24.42;;
57832;SDS011;43667;53.036;6.740;2023-03-19T04:35:14;43.90;;;27.23;;
57832;SDS011;43667;53.036;6.740;2023-03-19T04:37:42;40.38;;;24.90;;
57832;SDS011;43667;53.036;6.740;2023-03-19T04:40:12;28.58;;;21.75;;
57832;SDS011;43667;53.036;6.740;2023-03-19T04:42:38;25.75;;;20.85;;
57832;SDS011;43667;53.036;6.740;2023-03-19T04:45:04;27.77;;;21.35;;
57832;SDS011;43667;53.036;6.740;2023-03-19T04:47:30;33.72;;;21.85;;
57832;SDS011;43667;53.036;6.740;2023-03-19T04:49:55;32.97;;;21.17;;
57832;SDS011;43667;53.036;6.740;2023-03-19T04:52:22;27.98;;;20.50;;
57832;SDS011;43667;53.036;6.740;2023-03-19T04:54:47;30.13;;;21.05;;
57832;SDS011;43667;53.036;6.740;2023-03-19T04:57:13;20.08;;;17.90;;
57832;SDS011;43667;53.036;6.740;2023-03-19T04:59:38;22.65;;;18.15;;
57832;SDS011;43667;53.036;6.740;2023-03-19T05:02:04;26.15;;;18.88;;
57832;SDS011;43667;53.036;6.740;2023-03-19T05:04:30;28.90;;;18.85;;
57832;SDS011;43667;53.036;6.740;2023-03-19T05:06:55;25.15;;;18.55;;
57832;SDS011;43667;53.036;6.740;2023-03-19T05:09:22;26.05;;;18.83;;
57832;SDS011;43667;53.036;6.740;2023-03-19T05:11:47;26.20;;;18.30;;
57832;SDS011;43667;53.036;6.740;2023-03-19T05:14:13;21.92;;;16.17;;
57832;SDS011;43667;53.036;6.740;2023-03-19T05:16:38;25.25;;;16.85;;
57832;SDS011;43667;53.036;6.740;2023-03-19T05:19:04;24.17;;;17.48;;
57832;SDS011;43667;53.036;6.740;2023-03-19T05:21:29;26.10;;;17.90;;
57832;SDS011;43667;53.036;6.740;2023-03-19T05:23:55;26.80;;;17.40;;
57832;SDS011;43667;53.036;6.740;2023-03-19T05:26:21;24.13;;;17.15;;
57832;SDS011;43667;53.036;6.740;2023-03-19T05:28:47;38.85;;;20.90;;
57832;SDS011;43667;53.036;6.740;2023-03-19T05:31:12;33.13;;;18.83;;
57832;SDS011;43667;53.036;6.740;2023-03-19T05:33:38;27.63;;;17.05;;
57832;SDS011;43667;53.036;6.740;2023-03-19T05:36:03;26.35;;;16.27;;
57832;SDS011;43667;53.036;6.740;2023-03-19T05:38:29;33.28;;;18.38;;
57832;SDS011;43667;53.036;6.740;2023-03-19T05:40:55;33.65;;;17.83;;
57832;SDS011;43667;53.036;6.740;2023-03-19T05:43:20;24.20;;;15.90;;
57832;SDS011;43667;53.036;6.740;2023-03-19T05:45:49;27.60;;;16.33;;
57832;SDS011;43667;53.036;6.740;2023-03-19T05:48:16;29.77;;;17.30;;
57832;SDS011;43667;53.036;6.740;2023-03-19T05:50:42;33.60;;;17.95;;
57832;SDS011;43667;53.036;6.740;2023-03-19T05:53:08;25.08;;;16.73;;
57832;SDS011;43667;53.036;6.740;2023-03-19T05:55:33;29.38;;;17.65;;
57832;SDS011;43667;53.036;6.740;2023-03-19T05:57:59;38.17;;;18.13;;
57832;SDS011;43667;53.036;6.740;2023-03-19T06:00:25;25.08;;;15.40;;
57832;SDS011;43667;53.036;6.740;2023-03-19T06:02:51;89.35;;;22.67;;
57832;SDS011;43667;53.036;6.740;2023-03-19T06:05:17;46.92;;;18.38;;
57832;SDS011;43667;53.036;6.740;2023-03-19T06:07:42;61.47;;;19.50;;
57832;SDS011;43667;53.036;6.740;2023-03-19T06:10:08;31.63;;;17.38;;
57832;SDS011;43667;53.036;6.740;2023-03-19T06:12:34;39.95;;;17.67;;
57832;SDS011;43667;53.036;6.740;2023-03-19T06:15:00;116.13;;;23.77;;
57832;SDS011;43667;53.036;6.740;2023-03-19T06:17:26;27.45;;;15.48;;
57832;SDS011;43667;53.036;6.740;2023-03-19T06:19:51;32.97;;;17.27;;
57832;SDS011;43667;53.036;6.740;2023-03-19T06:22:17;71.22;;;19.83;;
57832;SDS011;43667;53.036;6.740;2023-03-19T06:24:42;77.53;;;18.17;;
57832;SDS011;43667;53.036;6.740;2023-03-19T06:27:08;30.52;;;16.17;;
57832;SDS011;43667;53.036;6.740;2023-03-19T06:29:33;354.55;;;29.67;;
57832;SDS011;43667;53.036;6.740;2023-03-19T06:31:59;24.98;;;15.15;;
57832;SDS011;43667;53.036;6.740;2023-03-19T06:34:25;73.95;;;18.85;;
57832;SDS011;43667;53.036;6.740;2023-03-19T06:36:51;57.78;;;19.15;;
57832;SDS011;43667;53.036;6.740;2023-03-19T06:39:17;41.78;;;18.02;;
57832;SDS011;43667;53.036;6.740;2023-03-19T06:41:43;24.00;;;15.70;;
57832;SDS011;43667;53.036;6.740;2023-03-19T06:44:09;24.08;;;16.25;;
57832;SDS011;43667;53.036;6.740;2023-03-19T06:46:35;26.83;;;17.55;;
57832;SDS011;43667;53.036;6.740;2023-03-19T06:49:01;29.13;;;16.73;;
57832;SDS011;43667;53.036;6.740;2023-03-19T06:51:26;27.98;;;17.00;;
57832;SDS011;43667;53.036;6.740;2023-03-19T06:53:52;37.20;;;18.17;;
57832;SDS011;43667;53.036;6.740;2023-03-19T06:56:18;26.70;;;17.05;;
57832;SDS011;43667;53.036;6.740;2023-03-19T06:58:43;23.25;;;16.25;;
57832;SDS011;43667;53.036;6.740;2023-03-19T07:01:09;28.05;;;17.20;;
57832;SDS011;43667;53.036;6.740;2023-03-19T07:03:35;30.73;;;16.92;;
57832;SDS011;43667;53.036;6.740;2023-03-19T07:06:01;23.65;;;14.68;;
57832;SDS011;43667;53.036;6.740;2023-03-19T07:08:26;18.58;;;14.63;;
57832;SDS011;43667;53.036;6.740;2023-03-19T07:10:54;21.27;;;14.57;;
57832;SDS011;43667;53.036;6.740;2023-03-19T07:13:21;18.75;;;14.13;;
57832;SDS011;43667;53.036;6.740;2023-03-19T07:15:46;19.40;;;14.15;;
57832;SDS011;43667;53.036;6.740;2023-03-19T07:18:12;17.30;;;13.50;;
57832;SDS011;43667;53.036;6.740;2023-03-19T07:20:38;14.80;;;12.95;;
57832;SDS011;43667;53.036;6.740;2023-03-19T07:23:03;13.02;;;11.63;;
57832;SDS011;43667;53.036;6.740;2023-03-19T07:25:29;16.08;;;12.82;;
57832;SDS011;43667;53.036;6.740;2023-03-19T07:27:55;14.60;;;12.07;;
57832;SDS011;43667;53.036;6.740;2023-03-19T07:30:20;15.75;;;12.13;;
57832;SDS011;43667;53.036;6.740;2023-03-19T07:32:46;14.05;;;12.40;;
57832;SDS011;43667;53.036;6.740;2023-03-19T07:35:12;14.40;;;11.85;;
57832;SDS011;43667;53.036;6.740;2023-03-19T07:37:38;12.10;;;10.90;;
57832;SDS011;43667;53.036;6.740;2023-03-19T07:40:04;12.43;;;10.73;;
57832;SDS011;43667;53.036;6.740;2023-03-19T07:42:31;13.38;;;10.60;;
57832;SDS011;43667;53.036;6.740;2023-03-19T07:44:56;11.50;;;10.30;;
57832;SDS011;43667;53.036;6.740;2023-03-19T07:47:22;13.35;;;11.32;;
57832;SDS011;43667;53.036;6.740;2023-03-19T07:49:48;11.50;;;10.40;;
57832;SDS011;43667;53.036;6.740;2023-03-19T07:52:13;11.40;;;10.27;;
57832;SDS011;43667;53.036;6.740;2023-03-19T07:54:39;12.63;;;11.25;;
57832;SDS011;43667;53.036;6.740;2023-03-19T07:57:05;11.60;;;10.40;;
57832;SDS011;43667;53.036;6.740;2023-03-19T07:59:30;12.43;;;9.63;;
57832;SDS011;43667;53.036;6.740;2023-03-19T08:01:56;10.82;;;9.82;;
57832;SDS011;43667;53.036;6.740;2023-03-19T08:04:21;11.70;;;10.40;;
57832;SDS011;43667;53.036;6.740;2023-03-19T08:06:48;10.82;;;9.82;;
57832;SDS011;43667;53.036;6.740;2023-03-19T08:09:13;11.65;;;10.55;;
57832;SDS011;43667;53.036;6.740;2023-03-19T08:11:39;10.90;;;9.85;;
57832;SDS011;43667;53.036;6.740;2023-03-19T08:14:05;10.88;;;9.88;;
57832;SDS011;43667;53.036;6.740;2023-03-19T08:16:30;11.10;;;10.00;;
57832;SDS011;43667;53.036;6.740;2023-03-19T08:18:56;10.73;;;9.73;;
57832;SDS011;43667;53.036;6.740;2023-03-19T08:21:21;11.35;;;9.95;;
57832;SDS011;43667;53.036;6.740;2023-03-19T08:23:47;10.45;;;9.45;;
57832;SDS011;43667;53.036;6.740;2023-03-19T08:26:12;10.80;;;9.73;;
57832;SDS011;43667;53.036;6.740;2023-03-19T08:28:38;10.60;;;9.50;;
57832;SDS011;43667;53.036;6.740;2023-03-19T08:31:10;9.90;;;8.60;;
57832;SDS011;43667;53.036;6.740;2023-03-19T08:33:38;8.90;;;8.10;;
57832;SDS011;43667;53.036;6.740;2023-03-19T08:36:08;10.80;;;9.70;;
57832;SDS011;43667;53.036;6.740;2023-03-19T08:38:36;10.25;;;9.25;;
57832;SDS011;43667;53.036;6.740;2023-03-19T08:41:02;9.60;;;8.80;;
57832;SDS011;43667;53.036;6.740;2023-03-19T08:43:29;9.98;;;8.98;;
57832;SDS011;43667;53.036;6.740;2023-03-19T08:45:55;10.70;;;9.43;;
57832;SDS011;43667;53.036;6.740;2023-03-19T08:48:21;9.90;;;8.93;;
57832;SDS011;43667;53.036;6.740;2023-03-19T08:50:53;10.20;;;9.07;;
57832;SDS011;43667;53.036;6.740;2023-03-19T08:53:20;10.52;;;9.32;;
57832;SDS011;43667;53.036;6.740;2023-03-19T08:55:51;10.20;;;9.30;;
57832;SDS011;43667;53.036;6.740;2023-03-19T08:58:28;11.05;;;9.95;;
57832;SDS011;43667;53.036;6.740;2023-03-19T09:00:59;11.32;;;10.05;;
57832;SDS011;43667;53.036;6.740;2023-03-19T09:05:52;10.75;;;9.65;;
57832;SDS011;43667;53.036;6.740;2023-03-19T09:08:21;10.30;;;9.05;;
57832;SDS011;43667;53.036;6.740;2023-03-19T09:10:47;11.63;;;9.07;;
57832;SDS011;43667;53.036;6.740;2023-03-19T09:13:12;10.15;;;9.20;;
57832;SDS011;43667;53.036;6.740;2023-03-19T09:15:38;10.45;;;9.25;;
57832;SDS011;43667;53.036;6.740;2023-03-19T09:18:03;12.30;;;9.38;;
57832;SDS011;43667;53.036;6.740;2023-03-19T09:20:29;10.95;;;9.85;;
57832;SDS011;43667;53.036;6.740;2023-03-19T09:22:55;10.70;;;9.68;;
57832;SDS011;43667;53.036;6.740;2023-03-19T09:25:20;10.43;;;9.32;;
57832;SDS011;43667;53.036;6.740;2023-03-19T09:27:46;10.60;;;9.50;;
57832;SDS011;43667;53.036;6.740;2023-03-19T09:30:12;9.70;;;8.90;;
57832;SDS011;43667;53.036;6.740;2023-03-19T09:32:38;9.07;;;8.10;;
57832;SDS011;43667;53.036;6.740;2023-03-19T09:35:03;8.80;;;7.47;;
57832;SDS011;43667;53.036;6.740;2023-03-19T09:37:29;8.10;;;7.30;;
57832;SDS011;43667;53.036;6.740;2023-03-19T09:39:55;7.90;;;7.20;;
57832;SDS011;43667;53.036;6.740;2023-03-19T09:42:30;8.05;;;6.93;;
57832;SDS011;43667;53.036;6.740;2023-03-19T09:45:14;9.70;;;7.65;;
57832;SDS011;43667;53.036;6.740;2023-03-19T09:47:40;8.20;;;7.40;;
57832;SDS011;43667;53.036;6.740;2023-03-19T09:53:04;8.50;;;7.72;;
57832;SDS011;43667;53.036;6.740;2023-03-19T09:55:43;8.68;;;7.72;;
57832;SDS011;43667;53.036;6.740;2023-03-19T09:58:13;9.30;;;7.15;;
57832;SDS011;43667;53.036;6.740;2023-03-19T10:00:42;7.78;;;6.53;;
57832;SDS011;43667;53.036;6.740;2023-03-19T10:14:17;6.75;;;5.80;;
57832;SDS011;43667;53.036;6.740;2023-03-19T10:16:59;5.80;;;5.30;;
57832;SDS011;43667;53.036;6.740;2023-03-19T10:19:50;7.13;;;6.40;;
57832;SDS011;43667;53.036;6.740;2023-03-19T10:22:39;6.60;;;5.45;;
57832;SDS011;43667;53.036;6.740;2023-03-19T10:25:10;7.70;;;6.68;;
57832;SDS011;43667;53.036;6.740;2023-03-19T10:27:42;6.30;;;5.70;;
57832;SDS011;43667;53.036;6.740;2023-03-19T10:30:12;7.80;;;6.05;;
57832;SDS011;43667;53.036;6.740;2023-03-19T10:32:43;6.47;;;5.75;;
57832;SDS011;43667;53.036;6.740;2023-03-19T10:35:19;6.63;;;5.88;;
57832;SDS011;43667;53.036;6.740;2023-03-19T10:37:46;6.20;;;5.60;;
57832;SDS011;43667;53.036;6.740;2023-03-19T10:40:21;6.95;;;5.70;;
57832;SDS011;43667;53.036;6.740;2023-03-19T10:42:55;6.35;;;5.75;;
57832;SDS011;43667;53.036;6.740;2023-03-19T10:45:30;6.78;;;6.15;;
57832;SDS011;43667;53.036;6.740;2023-03-19T10:50:36;7.03;;;6.38;;
57832;SDS011;43667;53.036;6.740;2023-03-19T10:55:43;7.97;;;6.43;;
57832;SDS011;43667;53.036;6.740;2023-03-19T10:58:16;6.40;;;5.80;;
57832;SDS011;43667;53.036;6.740;2023-03-19T11:00:46;7.57;;;6.88;;
57832;SDS011;43667;53.036;6.740;2023-03-19T11:06:18;8.93;;;6.38;;
57832;SDS011;43667;53.036;6.740;2023-03-19T11:08:51;6.95;;;6.20;;
57832;SDS011;43667;53.036;6.740;2023-03-19T11:11:23;6.85;;;6.15;;
57832;SDS011;43667;53.036;6.740;2023-03-19T11:16:59;7.65;;;6.85;;
57832;SDS011;43667;53.036;6.740;2023-03-19T11:19:30;7.00;;;6.40;;
57832;SDS011;43667;53.036;6.740;2023-03-19T11:24:30;6.55;;;5.85;;
57832;SDS011;43667;53.036;6.740;2023-03-19T11:26:58;8.93;;;6.32;;
57832;SDS011;43667;53.036;6.740;2023-03-19T11:29:25;7.22;;;6.53;;
57832;SDS011;43667;53.036;6.740;2023-03-19T11:34:44;7.60;;;6.82;;
57832;SDS011;43667;53.036;6.740;2023-03-19T11:40:05;8.07;;;7.38;;
57832;SDS011;43667;53.036;6.740;2023-03-19T11:45:31;8.52;;;7.68;;
57832;SDS011;43667;53.036;6.740;2023-03-19T11:50:57;9.07;;;7.75;;
57832;SDS011;43667;53.036;6.740;2023-03-19T11:53:49;8.82;;;7.97;;
57832;SDS011;43667;53.036;6.740;2023-03-19T11:56:35;9.00;;;7.97;;
57832;SDS011;43667;53.036;6.740;2023-03-19T12:08:09;10.77;;;9.30;;
57832;SDS011;43667;53.036;6.740;2023-03-19T12:10:41;11.10;;;9.95;;
57832;SDS011;43667;53.036;6.740;2023-03-19T12:13:19;10.85;;;9.23;;
57832;SDS011;43667;53.036;6.740;2023-03-19T12:19:07;10.23;;;8.95;;
57832;SDS011;43667;53.036;6.740;2023-03-19T12:27:33;10.50;;;9.50;;
57832;SDS011;43667;53.036;6.740;2023-03-19T12:35:44;11.20;;;10.10;;
57832;SDS011;43667;53.036;6.740;2023-03-19T12:38:26;9.55;;;8.65;;
57832;SDS011;43667;53.036;6.740;2023-03-19T12:41:10;9.02;;;8.15;;
57832;SDS011;43667;53.036;6.740;2023-03-19T12:46:44;9.88;;;9.00;;
57832;SDS011;43667;53.036;6.740;2023-03-19T12:49:18;10.20;;;9.20;;
57832;SDS011;43667;53.036;6.740;2023-03-19T12:51:56;10.15;;;8.82;;
57832;SDS011;43667;53.036;6.740;2023-03-19T12:54:27;10.32;;;9.15;;
57832;SDS011;43667;53.036;6.740;2023-03-19T12:59:52;9.82;;;8.82;;
57832;SDS011;43667;53.036;6.740;2023-03-19T13:02:31;9.13;;;8.18;;
57832;SDS011;43667;53.036;6.740;2023-03-19T13:07:42;10.50;;;9.48;;
57832;SDS011;43667;53.036;6.740;2023-03-19T13:10:22;10.57;;;9.68;;
57832;SDS011;43667;53.036;6.740;2023-03-19T13:12:49;11.43;;;10.27;;
57832;SDS011;43667;53.036;6.740;2023-03-19T13:15:18;10.18;;;9.18;;
57832;SDS011;43667;53.036;6.740;2023-03-19T13:20:47;11.48;;;8.95;;
57832;SDS011;43667;53.036;6.740;2023-03-19T13:23:31;9.77;;;8.23;;
57832;SDS011;43667;53.036;6.740;2023-03-19T13:25:59;10.15;;;9.15;;
57832;SDS011;43667;53.036;6.740;2023-03-19T13:28:33;9.48;;;8.43;;
57832;SDS011;43667;53.036;6.740;2023-03-19T13:31:05;9.63;;;8.63;;
57832;SDS011;43667;53.036;6.740;2023-03-19T13:33:47;9.65;;;8.32;;
57832;SDS011;43667;53.036;6.740;2023-03-19T13:36:24;9.82;;;8.80;;
57832;SDS011;43667;53.036;6.740;2023-03-19T13:38:52;9.90;;;8.63;;
57832;SDS011;43667;53.036;6.740;2023-03-19T13:46:55;11.57;;;9.25;;
57832;SDS011;43667;53.036;6.740;2023-03-19T13:49:26;11.55;;;8.75;;
57832;SDS011;43667;53.036;6.740;2023-03-19T13:51:54;9.57;;;8.57;;
57832;SDS011;43667;53.036;6.740;2023-03-19T13:54:39;8.75;;;7.78;;
57832;SDS011;43667;53.036;6.740;2023-03-19T13:59:41;9.98;;;8.82;;
57832;SDS011;43667;53.036;6.740;2023-03-19T14:04:51;9.52;;;8.32;;
57832;SDS011;43667;53.036;6.740;2023-03-19T14:07:34;9.35;;;7.68;;
57832;SDS011;43667;53.036;6.740;2023-03-19T14:12:48;10.15;;;8.68;;
57832;SDS011;43667;53.036;6.740;2023-03-19T14:15:15;9.75;;;8.18;;
57832;SDS011;43667;53.036;6.740;2023-03-19T14:22:53;10.65;;;8.68;;
57832;SDS011;43667;53.036;6.740;2023-03-19T14:28:16;13.20;;;9.68;;
57832;SDS011;43667;53.036;6.740;2023-03-19T14:30:45;12.85;;;9.68;;
57832;SDS011;43667;53.036;6.740;2023-03-19T14:33:25;10.27;;;9.15;;
57832;SDS011;43667;53.036;6.740;2023-03-19T14:35:57;10.90;;;8.95;;
57832;SDS011;43667;53.036;6.740;2023-03-19T14:38:37;11.40;;;9.07;;
57832;SDS011;43667;53.036;6.740;2023-03-19T14:41:10;9.38;;;8.48;;
57832;SDS011;43667;53.036;6.740;2023-03-19T14:43:51;11.20;;;10.07;;
57832;SDS011;43667;53.036;6.740;2023-03-19T14:52:43;14.45;;;12.77;;
57832;SDS011;43667;53.036;6.740;2023-03-19T14:55:13;18.92;;;14.55;;
57832;SDS011;43667;53.036;6.740;2023-03-19T14:57:41;16.05;;;14.35;;
57832;SDS011;43667;53.036;6.740;2023-03-19T15:00:11;18.38;;;15.65;;
57832;SDS011;43667;53.036;6.740;2023-03-19T15:02:40;18.42;;;16.55;;
57832;SDS011;43667;53.036;6.740;2023-03-19T15:05:16;19.08;;;15.60;;
57832;SDS011;43667;53.036;6.740;2023-03-19T15:07:47;18.27;;;15.43;;
57832;SDS011;43667;53.036;6.740;2023-03-19T15:10:18;18.98;;;15.48;;
57832;SDS011;43667;53.036;6.740;2023-03-19T15:18:09;19.73;;;15.98;;
57832;SDS011;43667;53.036;6.740;2023-03-19T15:20:37;20.42;;;16.38;;
57832;SDS011;43667;53.036;6.740;2023-03-19T15:23:07;21.27;;;17.25;;
57832;SDS011;43667;53.036;6.740;2023-03-19T15:25:43;20.45;;;17.02;;
57832;SDS011;43667;53.036;6.740;2023-03-19T15:28:13;25.08;;;18.85;;
57832;SDS011;43667;53.036;6.740;2023-03-19T15:30:41;22.95;;;17.70;;
57832;SDS011;43667;53.036;6.740;2023-03-19T15:33:17;22.27;;;18.45;;
57832;SDS011;43667;53.036;6.740;2023-03-19T15:35:52;23.90;;;17.67;;
57832;SDS011;43667;53.036;6.740;2023-03-19T15:38:22;22.63;;;17.40;;
57832;SDS011;43667;53.036;6.740;2023-03-19T15:40:51;24.00;;;16.95;;
57832;SDS011;43667;53.036;6.740;2023-03-19T15:43:17;21.23;;;15.98;;
57832;SDS011;43667;53.036;6.740;2023-03-19T15:45:47;21.50;;;16.20;;
57832;SDS011;43667;53.036;6.740;2023-03-19T15:50:44;20.73;;;15.20;;
57832;SDS011;43667;53.036;6.740;2023-03-19T15:53:23;19.95;;;14.95;;
57832;SDS011;43667;53.036;6.740;2023-03-19T15:55:52;20.42;;;15.30;;
57832;SDS011;43667;53.036;6.740;2023-03-19T15:58:20;21.92;;;14.75;;
57832;SDS011;43667;53.036;6.740;2023-03-19T16:00:47;20.20;;;13.68;;
57832;SDS011;43667;53.036;6.740;2023-03-19T16:03:19;22.65;;;14.73;;
57832;SDS011;43667;53.036;6.740;2023-03-19T16:05:52;19.33;;;12.93;;
57832;SDS011;43667;53.036;6.740;2023-03-19T16:08:24;23.67;;;14.90;;
57832;SDS011;43667;53.036;6.740;2023-03-19T16:10:50;20.52;;;14.07;;
57832;SDS011;43667;53.036;6.740;2023-03-19T16:13:30;20.63;;;14.10;;
57832;SDS011;43667;53.036;6.740;2023-03-19T16:18:41;23.45;;;14.45;;
57832;SDS011;43667;53.036;6.740;2023-03-19T16:21:36;24.92;;;16.35;;
57832;SDS011;43667;53.036;6.740;2023-03-19T16:31:58;26.30;;;18.08;;
57832;SDS011;43667;53.036;6.740;2023-03-19T16:36:55;24.63;;;16.38;;
57832;SDS011;43667;53.036;6.740;2023-03-19T16:39:23;25.20;;;16.45;;
57832;SDS011;43667;53.036;6.740;2023-03-19T16:44:35;25.95;;;16.58;;
57832;SDS011;43667;53.036;6.740;2023-03-19T16:47:08;26.73;;;16.42;;
57832;SDS011;43667;53.036;6.740;2023-03-19T16:49:35;27.67;;;15.88;;
57832;SDS011;43667;53.036;6.740;2023-03-19T16:52:00;21.20;;;14.63;;
57832;SDS011;43667;53.036;6.740;2023-03-19T16:54:26;27.60;;;16.67;;